createdAt,value
2022-10-23T00:00:17.095Z,20.05
2022-10-23T00:05:40.609Z,20.10
2022-10-23T00:10:43.488Z,20.12
2022-10-23T00:15:46.013Z,20.24
2022-10-23T00:20:48.511Z,20.00
2022-10-23T00:25:50.942Z,18.08
2022-10-23T00:30:53.413Z,18.39
2022-10-23T00:35:55.879Z,19.16
2022-10-23T00:40:58.367Z,19.53
2022-10-23T00:46:01.189Z,19.64
2022-10-23T00:51:03.685Z,19.72
2022-10-23T00:56:06.285Z,19.63
2022-10-23T01:01:11.684Z,19.40
2022-10-23T01:06:14.204Z,19.55
2022-10-23T01:11:26.446Z,19.51
2022-10-23T01:16:29.290Z,19.55
2022-10-23T01:21:42.325Z,19.50
2022-10-23T01:26:47.740Z,19.75
2022-10-23T01:31:55.638Z,19.84
2022-10-23T01:37:02.147Z,19.96
2022-10-23T01:42:08.527Z,20.04
2022-10-23T01:47:12.979Z,19.84
2022-10-23T01:52:16.480Z,18.16
2022-10-23T01:57:20.539Z,18.89
2022-10-23T02:02:24.752Z,19.22
2022-10-23T02:07:27.239Z,19.41
2022-10-23T02:12:32.664Z,19.42
2022-10-23T02:17:43.595Z,19.59
2022-10-23T02:22:49.214Z,19.78
2022-10-23T02:27:54.429Z,19.77
2022-10-23T02:32:57.593Z,19.75
2022-10-23T02:38:01.170Z,19.83
2022-10-23T02:43:06.614Z,19.95
2022-10-23T02:48:11.092Z,20.13
2022-10-23T02:53:25.742Z,19.83
2022-10-23T02:58:35.517Z,17.94
2022-10-23T03:03:41.380Z,18.57
2022-10-23T03:08:44.978Z,19.16
2022-10-23T03:13:47.762Z,19.50
2022-10-23T03:18:50.132Z,19.69
2022-10-23T03:23:52.759Z,19.81
2022-10-23T03:28:55.227Z,19.99
2022-10-23T03:33:57.730Z,20.09
2022-10-23T03:39:00.217Z,20.24
2022-10-23T03:44:06.211Z,19.05
2022-10-23T03:49:08.651Z,18.11
2022-10-23T03:54:11.133Z,19.27
2022-10-23T03:59:13.765Z,19.66
2022-10-23T04:04:17.251Z,19.77
2022-10-23T04:09:19.882Z,20.00
2022-10-23T04:14:22.578Z,20.08
2022-10-23T04:19:25.066Z,20.15
2022-10-23T04:24:27.544Z,19.99
2022-10-23T04:29:32.330Z,20.03
2022-10-23T04:34:35.166Z,20.06
2022-10-23T04:39:37.656Z,20.06
2022-10-23T04:44:40.110Z,19.03
2022-10-23T04:49:42.985Z,17.31
2022-10-23T04:54:47.610Z,18.34
2022-10-23T04:59:50.029Z,19.08
2022-10-23T05:04:52.410Z,19.28
2022-10-23T05:09:54.795Z,19.32
2022-10-23T05:14:57.293Z,19.55
2022-10-23T05:20:01.531Z,19.50
2022-10-23T05:25:04.678Z,19.45
2022-10-23T05:30:07.331Z,19.55
2022-10-23T05:35:13.128Z,19.64
2022-10-23T05:40:15.873Z,19.66
2022-10-23T05:45:18.536Z,19.63
2022-10-23T05:50:20.927Z,19.65
2022-10-23T05:55:23.320Z,19.69
2022-10-23T06:00:25.709Z,19.69
2022-10-23T06:05:28.335Z,19.61
2022-10-23T06:10:31.764Z,19.57
2022-10-23T06:15:34.305Z,19.72
2022-10-23T06:20:37.396Z,19.80
2022-10-23T06:25:40.195Z,19.73
2022-10-23T06:30:42.574Z,17.85
2022-10-23T06:35:45.075Z,18.19
2022-10-23T06:40:52.292Z,19.04
2022-10-23T06:45:54.664Z,19.34
2022-10-23T06:50:57.411Z,19.61
2022-10-23T06:56:00.562Z,19.88
2022-10-23T07:01:05.292Z,20.04
2022-10-23T07:06:08.888Z,18.60
2022-10-23T07:11:11.957Z,17.94
2022-10-23T07:16:18.234Z,19.31
2022-10-23T07:21:20.677Z,20.03
2022-10-23T07:26:23.152Z,20.10
2022-10-23T07:31:28.160Z,18.56
2022-10-23T07:36:31.334Z,19.41
2022-10-23T07:41:33.916Z,20.22
2022-10-23T07:46:36.382Z,20.47
2022-10-23T07:51:38.929Z,19.79
2022-10-23T07:56:41.435Z,18.03
2022-10-23T08:01:47.083Z,19.10
2022-10-23T08:06:49.903Z,20.03
2022-10-23T08:11:52.638Z,20.09
2022-10-23T08:16:55.331Z,20.28
2022-10-23T08:21:57.868Z,20.46
2022-10-23T08:27:00.308Z,20.39
2022-10-23T08:32:02.865Z,18.62
2022-10-23T08:37:05.445Z,18.64
2022-10-23T08:42:17.158Z,19.88
2022-10-23T08:47:24.978Z,20.41
2022-10-23T08:52:34.028Z,20.70
2022-10-23T08:57:43.731Z,19.16
2022-10-23T09:02:47.823Z,19.40
2022-10-23T09:07:50.276Z,20.37
2022-10-23T09:12:52.800Z,20.77
2022-10-23T09:17:57.621Z,20.52
2022-10-23T09:23:01.807Z,18.98
2022-10-23T09:28:05.699Z,19.95
2022-10-23T09:33:11.501Z,20.61
2022-10-23T09:38:16.912Z,20.80
2022-10-23T09:43:21.769Z,20.83
2022-10-23T09:48:24.319Z,20.68
2022-10-23T09:53:30.749Z,19.21
2022-10-23T09:58:35.644Z,20.05
2022-10-23T10:03:38.301Z,20.35
2022-10-23T10:08:44.475Z,20.58
2022-10-23T10:13:49.844Z,20.80
2022-10-23T10:19:12.548Z,20.76
2022-10-23T10:24:20.269Z,18.99
2022-10-23T10:29:31.226Z,19.59
2022-10-23T10:34:36.761Z,20.23
2022-10-23T10:39:47.665Z,20.69
2022-10-23T10:44:53.125Z,20.52
2022-10-23T10:50:02.644Z,18.69
2022-10-23T10:55:09.170Z,19.31
2022-10-23T11:00:12.880Z,19.80
2022-10-23T11:05:20.003Z,20.04
2022-10-23T11:10:22.912Z,20.01
2022-10-23T11:15:28.021Z,20.09
2022-10-23T11:20:33.525Z,20.20
2022-10-23T11:25:38.926Z,20.03
2022-10-23T11:30:43.356Z,20.09
2022-10-23T11:35:52.376Z,20.24
2022-10-23T11:40:57.234Z,20.28
2022-10-23T11:46:03.062Z,20.51
2022-10-23T11:51:06.849Z,20.69
2022-10-23T11:56:11.570Z,20.92
2022-10-23T12:01:18.342Z,20.96
2022-10-23T12:06:23.023Z,19.54
2022-10-23T12:11:27.595Z,18.77
2022-10-23T12:16:33.526Z,20.09
2022-10-23T12:21:36.585Z,20.52
2022-10-23T12:26:42.388Z,20.46
2022-10-23T12:31:48.279Z,20.57
2022-10-23T12:36:52.101Z,20.61
2022-10-23T12:41:55.006Z,20.75
2022-10-23T12:46:58.565Z,19.83
2022-10-23T12:52:03.673Z,18.97
2022-10-23T12:57:11.327Z,19.89
2022-10-23T13:02:23.662Z,20.37
2022-10-23T13:07:27.965Z,20.85
2022-10-23T13:12:33.281Z,20.29
2022-10-23T13:17:38.293Z,20.03
2022-10-23T13:22:41.699Z,21.17
2022-10-23T13:27:44.799Z,19.73
2022-10-23T13:32:47.587Z,20.82
2022-10-23T13:37:51.114Z,20.61
2022-10-23T13:42:54.963Z,18.89
2022-10-23T13:47:57.433Z,19.89
2022-10-23T13:52:59.899Z,20.56
2022-10-23T13:58:03.156Z,20.84
2022-10-23T14:03:06.267Z,21.09
2022-10-23T14:08:08.757Z,19.44
2022-10-23T14:13:11.244Z,19.89
2022-10-23T14:18:13.888Z,20.76
2022-10-23T14:23:16.381Z,20.46
2022-10-23T14:28:18.886Z,18.69
2022-10-23T14:33:21.469Z,19.38
2022-10-23T14:38:24.347Z,20.39
2022-10-23T14:43:26.910Z,20.73
2022-10-23T14:48:29.558Z,20.46
2022-10-23T14:53:32.231Z,18.60
2022-10-23T14:58:35.837Z,19.36
2022-10-23T15:03:38.331Z,20.30
2022-10-23T15:08:40.858Z,20.66
2022-10-23T15:13:43.350Z,20.89
2022-10-23T15:18:45.930Z,19.82
2022-10-23T15:23:48.955Z,18.01
2022-10-23T15:28:54.602Z,18.97
2022-10-23T15:33:58.206Z,19.73
2022-10-23T15:39:00.934Z,19.96
2022-10-23T15:44:04.751Z,20.03
2022-10-23T15:49:08.573Z,20.04
2022-10-23T15:54:16.473Z,19.37
2022-10-23T15:59:20.039Z,17.40
2022-10-23T16:04:22.875Z,18.22
2022-10-23T16:09:25.393Z,18.97
2022-10-23T16:14:28.050Z,19.33
2022-10-23T16:19:30.700Z,19.06
2022-10-23T16:24:33.687Z,17.04
2022-10-23T16:29:36.276Z,17.35
2022-10-23T16:34:38.754Z,18.43
2022-10-23T16:39:41.326Z,18.82
2022-10-23T16:44:43.828Z,19.04
2022-10-23T16:49:46.319Z,19.00
2022-10-23T16:54:48.783Z,17.15
2022-10-23T16:59:51.246Z,17.11
2022-10-23T17:04:53.739Z,18.27
2022-10-23T17:09:56.304Z,18.63
2022-10-23T17:14:58.876Z,18.79
2022-10-23T17:20:03.869Z,18.68
2022-10-23T17:25:06.861Z,16.84
2022-10-23T17:30:12.688Z,17.34
2022-10-23T17:35:15.337Z,18.18
2022-10-23T17:40:21.478Z,18.41
2022-10-23T17:45:26.562Z,18.59
2022-10-23T17:50:29.154Z,18.08
2022-10-23T17:55:31.679Z,16.20
2022-10-23T18:00:36.249Z,17.02
2022-10-23T18:10:41.239Z,18.17
2022-10-23T18:15:43.707Z,18.38
2022-10-23T18:20:46.184Z,18.52
2022-10-23T18:25:48.574Z,17.43
2022-10-23T18:30:53.427Z,15.69
2022-10-23T18:35:58.842Z,16.87
2022-10-23T18:41:01.590Z,17.74
2022-10-23T18:46:04.248Z,18.13
2022-10-23T18:51:12.247Z,18.31
2022-10-23T18:56:22.683Z,17.09
2022-10-23T19:01:27.225Z,15.98
2022-10-23T19:06:30.807Z,17.24
2022-10-23T19:11:33.209Z,17.84
2022-10-23T19:16:38.823Z,18.14
2022-10-23T19:21:41.985Z,18.31
2022-10-23T19:26:44.796Z,18.45
2022-10-23T19:31:49.297Z,18.62
2022-10-23T19:36:53.272Z,18.38
2022-10-23T19:41:55.979Z,16.45
2022-10-23T19:46:58.696Z,16.98
2022-10-23T19:52:01.192Z,17.92
2022-10-23T19:57:03.856Z,18.38
2022-10-23T20:02:06.734Z,18.65
2022-10-23T20:07:09.712Z,18.82
2022-10-23T20:12:12.184Z,19.00
2022-10-23T20:17:14.652Z,19.22
2022-10-23T20:22:17.109Z,19.41
2022-10-23T20:27:19.779Z,19.55
2022-10-23T20:32:22.235Z,19.62
2022-10-23T20:37:24.834Z,19.50
2022-10-23T20:42:27.232Z,17.65
2022-10-23T20:47:29.714Z,17.62
2022-10-23T20:57:35.852Z,19.40
2022-10-23T21:02:38.423Z,18.92
2022-10-23T21:07:41.148Z,17.03
2022-10-23T21:12:43.889Z,17.79
2022-10-23T21:17:49.687Z,18.96
2022-10-23T21:22:54.148Z,18.47
2022-10-23T21:27:56.562Z,16.51
2022-10-23T21:32:58.996Z,16.72
2022-10-23T21:38:01.403Z,18.17
2022-10-23T21:43:03.856Z,18.35
2022-10-23T21:48:06.369Z,16.54
2022-10-23T21:53:09.363Z,15.75
2022-10-23T21:58:11.910Z,17.38
2022-10-23T22:03:14.485Z,18.16
2022-10-23T22:08:16.873Z,16.84
2022-10-23T22:13:19.353Z,15.43
2022-10-23T22:18:21.767Z,16.82
2022-10-23T22:23:24.215Z,18.01
2022-10-23T22:28:26.956Z,18.21
2022-10-23T22:33:30.803Z,16.47
2022-10-23T22:38:33.338Z,15.88
2022-10-23T22:43:35.919Z,17.54
2022-10-23T22:48:38.862Z,18.31
2022-10-23T22:53:41.881Z,18.66
2022-10-23T22:58:47.077Z,17.46
2022-10-23T23:03:50.512Z,15.92
2022-10-23T23:08:52.984Z,17.17
2022-10-23T23:13:55.572Z,18.23
2022-10-23T23:19:01.626Z,18.68
2022-10-23T23:24:04.299Z,17.55
2022-10-23T23:29:06.785Z,15.90
2022-10-23T23:34:09.187Z,16.99
2022-10-23T23:39:11.667Z,18.07
2022-10-23T23:44:14.175Z,18.42
2022-10-23T23:49:16.607Z,18.68
2022-10-23T23:54:19.128Z,18.34
2022-10-23T23:59:21.584Z,16.39
